Harman, West Virginia
Current Conditions -  °F | °C
As of 5:51 AM on Thursday 18 Dec 2014 (Local Time) from KEKN Reporting Station
Overcast Overcast  
Wind Chill: 16°   Ceiling: 1800
Heat Index: 26°   Visibility: 10mi
Dew Point: 20°   Wind: 10mph
Humidity: 78%   Direction: 340°NNW
Pressure: 30.15"   Gusts: NA
Location:  38.92°N, 79.53°W
Report Text: KEKN 181051Z AUTO 34009KT 10SM OVC018 M03/M07 A3015 RMK AO2 SLP237 T10331067 TSNO
Loading
Personal Weather Stations






























Interactive Weather Map New forecast layout! Learn more

10-Day Weather Forecast

Advertisements
Track Severe Weather on mobile